sensor_id;sensor_type;location;lat;lon;timestamp;P1;durP1;ratioP1;P2;durP2;ratioP2
16954;SDS011;8594;52.052;8.354;2023-04-03T00:00:07;3.37;;;1.93;;
16954;SDS011;8594;52.052;8.354;2023-04-03T00:02:35;3.47;;;2.27;;
16954;SDS011;8594;52.052;8.354;2023-04-03T00:05:02;4.60;;;2.10;;
16954;SDS011;8594;52.052;8.354;2023-04-03T00:07:30;5.83;;;2.30;;
16954;SDS011;8594;52.052;8.354;2023-04-03T00:09:57;8.30;;;2.00;;
16954;SDS011;8594;52.052;8.354;2023-04-03T00:12:24;5.67;;;2.13;;
16954;SDS011;8594;52.052;8.354;2023-04-03T00:14:50;7.27;;;2.10;;
16954;SDS011;8594;52.052;8.354;2023-04-03T00:17:19;8.20;;;2.50;;
16954;SDS011;8594;52.052;8.354;2023-04-03T00:19:46;7.60;;;2.37;;
16954;SDS011;8594;52.052;8.354;2023-04-03T00:22:12;4.60;;;2.43;;
16954;SDS011;8594;52.052;8.354;2023-04-03T00:24:39;7.03;;;1.87;;
16954;SDS011;8594;52.052;8.354;2023-04-03T00:27:06;6.43;;;2.47;;
16954;SDS011;8594;52.052;8.354;2023-04-03T00:29:33;6.77;;;1.90;;
16954;SDS011;8594;52.052;8.354;2023-04-03T00:32:00;10.20;;;2.30;;
16954;SDS011;8594;52.052;8.354;2023-04-03T00:34:29;4.20;;;1.87;;
16954;SDS011;8594;52.052;8.354;2023-04-03T00:36:55;8.40;;;2.23;;
16954;SDS011;8594;52.052;8.354;2023-04-03T00:39:23;9.00;;;2.17;;
16954;SDS011;8594;52.052;8.354;2023-04-03T00:41:50;5.90;;;2.10;;
16954;SDS011;8594;52.052;8.354;2023-04-03T00:44:21;7.47;;;2.20;;
16954;SDS011;8594;52.052;8.354;2023-04-03T00:47:09;4.43;;;1.90;;
16954;SDS011;8594;52.052;8.354;2023-04-03T00:49:40;9.20;;;2.63;;
16954;SDS011;8594;52.052;8.354;2023-04-03T00:52:10;7.70;;;2.00;;
16954;SDS011;8594;52.052;8.354;2023-04-03T00:54:42;4.83;;;1.80;;
16954;SDS011;8594;52.052;8.354;2023-04-03T00:57:13;4.17;;;2.27;;
16954;SDS011;8594;52.052;8.354;2023-04-03T00:59:42;5.13;;;2.23;;
16954;SDS011;8594;52.052;8.354;2023-04-03T01:02:15;4.13;;;1.90;;
16954;SDS011;8594;52.052;8.354;2023-04-03T01:04:43;6.37;;;2.10;;
16954;SDS011;8594;52.052;8.354;2023-04-03T01:07:12;6.10;;;2.20;;
16954;SDS011;8594;52.052;8.354;2023-04-03T01:09:44;3.87;;;1.93;;
16954;SDS011;8594;52.052;8.354;2023-04-03T01:12:14;5.40;;;1.80;;
16954;SDS011;8594;52.052;8.354;2023-04-03T01:14:43;11.27;;;2.17;;
16954;SDS011;8594;52.052;8.354;2023-04-03T01:17:24;4.57;;;2.53;;
16954;SDS011;8594;52.052;8.354;2023-04-03T01:20:03;5.73;;;2.70;;
16954;SDS011;8594;52.052;8.354;2023-04-03T01:23:19;4.30;;;1.90;;
16954;SDS011;8594;52.052;8.354;2023-04-03T01:25:57;6.90;;;2.00;;
16954;SDS011;8594;52.052;8.354;2023-04-03T01:28:26;7.23;;;2.23;;
16954;SDS011;8594;52.052;8.354;2023-04-03T01:30:56;5.63;;;2.50;;
16954;SDS011;8594;52.052;8.354;2023-04-03T01:33:33;6.53;;;2.10;;
16954;SDS011;8594;52.052;8.354;2023-04-03T01:36:00;5.63;;;1.90;;
16954;SDS011;8594;52.052;8.354;2023-04-03T01:38:27;5.83;;;2.10;;
16954;SDS011;8594;52.052;8.354;2023-04-03T01:40:54;6.33;;;2.13;;
16954;SDS011;8594;52.052;8.354;2023-04-03T01:43:21;5.63;;;1.93;;
16954;SDS011;8594;52.052;8.354;2023-04-03T01:45:48;7.60;;;2.13;;
16954;SDS011;8594;52.052;8.354;2023-04-03T01:48:17;7.20;;;1.90;;
16954;SDS011;8594;52.052;8.354;2023-04-03T01:50:46;7.47;;;2.07;;
16954;SDS011;8594;52.052;8.354;2023-04-03T01:53:12;5.30;;;2.03;;
16954;SDS011;8594;52.052;8.354;2023-04-03T01:55:40;7.23;;;2.27;;
16954;SDS011;8594;52.052;8.354;2023-04-03T01:58:07;6.47;;;2.30;;
16954;SDS011;8594;52.052;8.354;2023-04-03T02:00:33;6.97;;;1.90;;
16954;SDS011;8594;52.052;8.354;2023-04-03T02:03:00;7.10;;;2.10;;
16954;SDS011;8594;52.052;8.354;2023-04-03T02:05:28;8.03;;;2.17;;
16954;SDS011;8594;52.052;8.354;2023-04-03T02:07:57;5.47;;;2.00;;
16954;SDS011;8594;52.052;8.354;2023-04-03T02:10:25;9.73;;;2.50;;
16954;SDS011;8594;52.052;8.354;2023-04-03T02:12:52;8.70;;;2.43;;
16954;SDS011;8594;52.052;8.354;2023-04-03T02:15:19;5.50;;;2.43;;
16954;SDS011;8594;52.052;8.354;2023-04-03T02:17:46;8.23;;;2.30;;
16954;SDS011;8594;52.052;8.354;2023-04-03T02:20:13;6.40;;;2.47;;
16954;SDS011;8594;52.052;8.354;2023-04-03T02:22:39;7.53;;;1.97;;
16954;SDS011;8594;52.052;8.354;2023-04-03T02:25:08;4.20;;;2.03;;
16954;SDS011;8594;52.052;8.354;2023-04-03T02:27:35;8.73;;;2.47;;
16954;SDS011;8594;52.052;8.354;2023-04-03T02:30:02;6.83;;;2.50;;
16954;SDS011;8594;52.052;8.354;2023-04-03T02:32:31;8.37;;;2.70;;
16954;SDS011;8594;52.052;8.354;2023-04-03T02:34:58;6.40;;;2.50;;
16954;SDS011;8594;52.052;8.354;2023-04-03T02:37:25;5.23;;;2.37;;
16954;SDS011;8594;52.052;8.354;2023-04-03T02:39:52;9.53;;;2.50;;
16954;SDS011;8594;52.052;8.354;2023-04-03T02:42:20;7.83;;;2.23;;
16954;SDS011;8594;52.052;8.354;2023-04-03T02:44:47;11.73;;;2.67;;
16954;SDS011;8594;52.052;8.354;2023-04-03T02:47:14;5.43;;;2.10;;
16954;SDS011;8594;52.052;8.354;2023-04-03T02:49:41;8.37;;;2.13;;
16954;SDS011;8594;52.052;8.354;2023-04-03T02:52:10;6.43;;;2.23;;
16954;SDS011;8594;52.052;8.354;2023-04-03T02:54:36;5.17;;;2.20;;
16954;SDS011;8594;52.052;8.354;2023-04-03T02:57:03;6.97;;;2.90;;
16954;SDS011;8594;52.052;8.354;2023-04-03T02:59:32;7.03;;;2.30;;
16954;SDS011;8594;52.052;8.354;2023-04-03T03:01:58;8.80;;;2.50;;
16954;SDS011;8594;52.052;8.354;2023-04-03T03:04:25;8.30;;;2.47;;
16954;SDS011;8594;52.052;8.354;2023-04-03T03:06:52;11.60;;;2.40;;
16954;SDS011;8594;52.052;8.354;2023-04-03T03:09:20;11.53;;;2.50;;
16954;SDS011;8594;52.052;8.354;2023-04-03T03:11:47;7.53;;;2.67;;
16954;SDS011;8594;52.052;8.354;2023-04-03T03:14:14;9.30;;;2.60;;
16954;SDS011;8594;52.052;8.354;2023-04-03T03:16:42;6.70;;;2.00;;
16954;SDS011;8594;52.052;8.354;2023-04-03T03:19:09;6.37;;;2.70;;
16954;SDS011;8594;52.052;8.354;2023-04-03T03:21:36;9.83;;;2.47;;
16954;SDS011;8594;52.052;8.354;2023-04-03T03:24:03;6.63;;;2.87;;
16954;SDS011;8594;52.052;8.354;2023-04-03T03:26:31;8.90;;;2.30;;
16954;SDS011;8594;52.052;8.354;2023-04-03T03:28:58;8.17;;;2.50;;
16954;SDS011;8594;52.052;8.354;2023-04-03T03:31:25;13.07;;;2.10;;
16954;SDS011;8594;52.052;8.354;2023-04-03T03:33:53;8.30;;;2.50;;
16954;SDS011;8594;52.052;8.354;2023-04-03T03:36:20;12.70;;;2.80;;
16954;SDS011;8594;52.052;8.354;2023-04-03T03:38:47;6.43;;;2.47;;
16954;SDS011;8594;52.052;8.354;2023-04-03T03:41:14;5.27;;;2.10;;
16954;SDS011;8594;52.052;8.354;2023-04-03T03:43:41;9.70;;;2.50;;
16954;SDS011;8594;52.052;8.354;2023-04-03T03:46:07;8.83;;;2.17;;
16954;SDS011;8594;52.052;8.354;2023-04-03T03:48:35;2.50;;;2.03;;
16954;SDS011;8594;52.052;8.354;2023-04-03T03:51:03;8.70;;;2.20;;
16954;SDS011;8594;52.052;8.354;2023-04-03T03:53:30;8.03;;;2.30;;
16954;SDS011;8594;52.052;8.354;2023-04-03T03:55:57;12.60;;;2.53;;
16954;SDS011;8594;52.052;8.354;2023-04-03T03:58:24;9.63;;;2.67;;
16954;SDS011;8594;52.052;8.354;2023-04-03T04:00:51;8.27;;;2.57;;
16954;SDS011;8594;52.052;8.354;2023-04-03T04:03:17;7.43;;;2.20;;
16954;SDS011;8594;52.052;8.354;2023-04-03T04:05:45;7.87;;;2.50;;
16954;SDS011;8594;52.052;8.354;2023-04-03T04:08:14;5.40;;;2.30;;
16954;SDS011;8594;52.052;8.354;2023-04-03T04:10:40;4.47;;;2.10;;
16954;SDS011;8594;52.052;8.354;2023-04-03T04:13:07;11.43;;;2.60;;
16954;SDS011;8594;52.052;8.354;2023-04-03T04:15:34;7.20;;;2.50;;
16954;SDS011;8594;52.052;8.354;2023-04-03T04:18:01;10.07;;;2.40;;
16954;SDS011;8594;52.052;8.354;2023-04-03T04:20:28;12.57;;;2.40;;
16954;SDS011;8594;52.052;8.354;2023-04-03T04:22:55;10.30;;;2.50;;
16954;SDS011;8594;52.052;8.354;2023-04-03T04:25:23;12.10;;;2.60;;
16954;SDS011;8594;52.052;8.354;2023-04-03T04:27:50;7.40;;;2.50;;
16954;SDS011;8594;52.052;8.354;2023-04-03T04:30:17;15.83;;;2.43;;
16954;SDS011;8594;52.052;8.354;2023-04-03T04:32:44;13.07;;;3.93;;
16954;SDS011;8594;52.052;8.354;2023-04-03T04:35:11;12.37;;;3.10;;
16954;SDS011;8594;52.052;8.354;2023-04-03T04:37:38;5.27;;;2.67;;
16954;SDS011;8594;52.052;8.354;2023-04-03T04:40:06;7.87;;;3.30;;
16954;SDS011;8594;52.052;8.354;2023-04-03T04:42:35;7.67;;;2.27;;
16954;SDS011;8594;52.052;8.354;2023-04-03T04:45:02;7.07;;;2.50;;
16954;SDS011;8594;52.052;8.354;2023-04-03T04:47:30;10.37;;;2.70;;
16954;SDS011;8594;52.052;8.354;2023-04-03T04:49:56;8.40;;;2.53;;
16954;SDS011;8594;52.052;8.354;2023-04-03T04:52:23;7.20;;;2.30;;
16954;SDS011;8594;52.052;8.354;2023-04-03T04:54:50;8.67;;;2.37;;
16954;SDS011;8594;52.052;8.354;2023-04-03T04:57:17;4.67;;;2.10;;
16954;SDS011;8594;52.052;8.354;2023-04-03T04:59:45;7.70;;;2.30;;
16954;SDS011;8594;52.052;8.354;2023-04-03T05:02:12;9.40;;;2.90;;
16954;SDS011;8594;52.052;8.354;2023-04-03T05:04:39;14.63;;;2.87;;
16954;SDS011;8594;52.052;8.354;2023-04-03T05:07:06;9.10;;;2.33;;
16954;SDS011;8594;52.052;8.354;2023-04-03T05:09:33;8.87;;;2.40;;
16954;SDS011;8594;52.052;8.354;2023-04-03T05:12:00;4.60;;;2.07;;
16954;SDS011;8594;52.052;8.354;2023-04-03T05:14:27;12.20;;;2.80;;
16954;SDS011;8594;52.052;8.354;2023-04-03T05:16:56;5.03;;;2.07;;
16954;SDS011;8594;52.052;8.354;2023-04-03T05:19:23;8.37;;;2.50;;
16954;SDS011;8594;52.052;8.354;2023-04-03T05:21:50;8.63;;;2.07;;
16954;SDS011;8594;52.052;8.354;2023-04-03T05:24:17;9.23;;;2.70;;
16954;SDS011;8594;52.052;8.354;2023-04-03T05:26:44;9.47;;;2.30;;
16954;SDS011;8594;52.052;8.354;2023-04-03T05:29:10;6.23;;;2.73;;
16954;SDS011;8594;52.052;8.354;2023-04-03T05:31:37;9.53;;;2.03;;
16954;SDS011;8594;52.052;8.354;2023-04-03T05:34:06;10.10;;;2.60;;
16954;SDS011;8594;52.052;8.354;2023-04-03T05:36:32;8.27;;;2.47;;
16954;SDS011;8594;52.052;8.354;2023-04-03T05:39:00;8.23;;;2.10;;
16954;SDS011;8594;52.052;8.354;2023-04-03T05:41:27;10.67;;;3.03;;
16954;SDS011;8594;52.052;8.354;2023-04-03T05:43:54;15.33;;;2.60;;
16954;SDS011;8594;52.052;8.354;2023-04-03T05:46:20;11.30;;;2.87;;
16954;SDS011;8594;52.052;8.354;2023-04-03T05:48:47;4.37;;;2.07;;
16954;SDS011;8594;52.052;8.354;2023-04-03T05:51:17;12.23;;;3.20;;
16954;SDS011;8594;52.052;8.354;2023-04-03T05:53:46;7.33;;;2.70;;
16954;SDS011;8594;52.052;8.354;2023-04-03T05:56:16;8.20;;;3.03;;
16954;SDS011;8594;52.052;8.354;2023-04-03T05:58:42;5.57;;;2.53;;
16954;SDS011;8594;52.052;8.354;2023-04-03T06:01:09;12.73;;;3.33;;
16954;SDS011;8594;52.052;8.354;2023-04-03T06:03:36;8.47;;;2.83;;
16954;SDS011;8594;52.052;8.354;2023-04-03T06:06:05;6.93;;;2.60;;
16954;SDS011;8594;52.052;8.354;2023-04-03T06:08:34;15.47;;;2.87;;
16954;SDS011;8594;52.052;8.354;2023-04-03T06:11:01;8.30;;;3.23;;
16954;SDS011;8594;52.052;8.354;2023-04-03T06:13:28;10.30;;;2.53;;
16954;SDS011;8594;52.052;8.354;2023-04-03T06:15:55;8.90;;;2.47;;
16954;SDS011;8594;52.052;8.354;2023-04-03T06:18:23;7.47;;;2.80;;
16954;SDS011;8594;52.052;8.354;2023-04-03T06:20:50;7.03;;;2.53;;
16954;SDS011;8594;52.052;8.354;2023-04-03T06:23:17;6.63;;;2.67;;
16954;SDS011;8594;52.052;8.354;2023-04-03T06:25:45;8.03;;;2.87;;
16954;SDS011;8594;52.052;8.354;2023-04-03T06:28:12;6.40;;;2.40;;
16954;SDS011;8594;52.052;8.354;2023-04-03T06:30:39;8.07;;;2.47;;
16954;SDS011;8594;52.052;8.354;2023-04-03T06:33:06;8.23;;;2.80;;
16954;SDS011;8594;52.052;8.354;2023-04-03T06:35:33;6.13;;;2.07;;
16954;SDS011;8594;52.052;8.354;2023-04-03T06:38:01;6.77;;;2.17;;
16954;SDS011;8594;52.052;8.354;2023-04-03T06:40:29;9.60;;;2.30;;
16954;SDS011;8594;52.052;8.354;2023-04-03T06:42:57;7.37;;;2.37;;
16954;SDS011;8594;52.052;8.354;2023-04-03T06:45:24;10.67;;;2.97;;
16954;SDS011;8594;52.052;8.354;2023-04-03T06:47:52;7.07;;;3.07;;
16954;SDS011;8594;52.052;8.354;2023-04-03T06:50:20;9.57;;;2.33;;
16954;SDS011;8594;52.052;8.354;2023-04-03T06:52:47;11.53;;;2.83;;
16954;SDS011;8594;52.052;8.354;2023-04-03T06:55:14;4.30;;;2.03;;
16954;SDS011;8594;52.052;8.354;2023-04-03T06:57:41;10.27;;;2.53;;
16954;SDS011;8594;52.052;8.354;2023-04-03T07:00:10;11.33;;;3.17;;
16954;SDS011;8594;52.052;8.354;2023-04-03T07:02:38;7.70;;;2.60;;
16954;SDS011;8594;52.052;8.354;2023-04-03T07:05:06;10.63;;;2.57;;
16954;SDS011;8594;52.052;8.354;2023-04-03T07:07:33;8.03;;;2.60;;
16954;SDS011;8594;52.052;8.354;2023-04-03T07:10:01;5.27;;;2.40;;
16954;SDS011;8594;52.052;8.354;2023-04-03T07:12:28;8.77;;;2.70;;
16954;SDS011;8594;52.052;8.354;2023-04-03T07:14:54;8.47;;;2.30;;
16954;SDS011;8594;52.052;8.354;2023-04-03T07:17:23;10.53;;;2.50;;
16954;SDS011;8594;52.052;8.354;2023-04-03T07:19:50;8.80;;;2.50;;
16954;SDS011;8594;52.052;8.354;2023-04-03T07:22:17;5.40;;;2.50;;
16954;SDS011;8594;52.052;8.354;2023-04-03T07:24:44;4.87;;;2.37;;
16954;SDS011;8594;52.052;8.354;2023-04-03T07:27:11;7.23;;;2.43;;
16954;SDS011;8594;52.052;8.354;2023-04-03T07:29:38;10.03;;;2.30;;
16954;SDS011;8594;52.052;8.354;2023-04-03T07:32:05;3.73;;;1.90;;
16954;SDS011;8594;52.052;8.354;2023-04-03T07:34:34;6.70;;;2.23;;
16954;SDS011;8594;52.052;8.354;2023-04-03T07:37:01;9.33;;;2.13;;
16954;SDS011;8594;52.052;8.354;2023-04-03T07:39:29;5.43;;;2.30;;
16954;SDS011;8594;52.052;8.354;2023-04-03T07:41:56;5.50;;;2.53;;
16954;SDS011;8594;52.052;8.354;2023-04-03T07:44:23;5.57;;;2.27;;
16954;SDS011;8594;52.052;8.354;2023-04-03T07:46:51;6.73;;;2.17;;
16954;SDS011;8594;52.052;8.354;2023-04-03T07:49:18;11.63;;;2.37;;
16954;SDS011;8594;52.052;8.354;2023-04-03T07:51:46;3.80;;;2.23;;
16954;SDS011;8594;52.052;8.354;2023-04-03T07:54:13;3.23;;;1.83;;
16954;SDS011;8594;52.052;8.354;2023-04-03T07:56:40;4.33;;;1.60;;
16954;SDS011;8594;52.052;8.354;2023-04-03T07:59:08;3.47;;;1.77;;
16954;SDS011;8594;52.052;8.354;2023-04-03T08:01:36;4.77;;;1.80;;
16954;SDS011;8594;52.052;8.354;2023-04-03T08:04:03;6.93;;;2.50;;
16954;SDS011;8594;52.052;8.354;2023-04-03T08:06:31;5.50;;;1.80;;
16954;SDS011;8594;52.052;8.354;2023-04-03T08:09:01;4.27;;;1.90;;
16954;SDS011;8594;52.052;8.354;2023-04-03T08:11:29;6.10;;;1.87;;
16954;SDS011;8594;52.052;8.354;2023-04-03T08:13:56;2.63;;;1.53;;
16954;SDS011;8594;52.052;8.354;2023-04-03T08:16:24;5.90;;;1.57;;
16954;SDS011;8594;52.052;8.354;2023-04-03T08:18:52;6.80;;;1.60;;
16954;SDS011;8594;52.052;8.354;2023-04-03T08:21:20;4.33;;;1.70;;
16954;SDS011;8594;52.052;8.354;2023-04-03T08:23:47;4.73;;;1.57;;
16954;SDS011;8594;52.052;8.354;2023-04-03T08:26:18;6.13;;;1.40;;
16954;SDS011;8594;52.052;8.354;2023-04-03T08:28:47;8.63;;;2.17;;
16954;SDS011;8594;52.052;8.354;2023-04-03T08:31:15;4.40;;;1.67;;
16954;SDS011;8594;52.052;8.354;2023-04-03T08:33:45;4.43;;;1.80;;
16954;SDS011;8594;52.052;8.354;2023-04-03T08:36:19;4.43;;;1.57;;
16954;SDS011;8594;52.052;8.354;2023-04-03T08:38:48;4.60;;;1.90;;
16954;SDS011;8594;52.052;8.354;2023-04-03T08:41:20;7.47;;;1.93;;
16954;SDS011;8594;52.052;8.354;2023-04-03T08:43:58;3.87;;;1.50;;
16954;SDS011;8594;52.052;8.354;2023-04-03T08:46:40;6.87;;;1.90;;
16954;SDS011;8594;52.052;8.354;2023-04-03T08:49:28;4.07;;;1.70;;
16954;SDS011;8594;52.052;8.354;2023-04-03T08:52:01;3.53;;;1.60;;
16954;SDS011;8594;52.052;8.354;2023-04-03T08:54:35;9.43;;;2.00;;
16954;SDS011;8594;52.052;8.354;2023-04-03T08:57:17;8.80;;;1.90;;
16954;SDS011;8594;52.052;8.354;2023-04-03T08:59:57;6.70;;;1.87;;
16954;SDS011;8594;52.052;8.354;2023-04-03T09:02:31;4.67;;;1.90;;
16954;SDS011;8594;52.052;8.354;2023-04-03T09:05:01;3.20;;;1.50;;
16954;SDS011;8594;52.052;8.354;2023-04-03T09:07:39;5.37;;;1.60;;
16954;SDS011;8594;52.052;8.354;2023-04-03T09:10:10;5.87;;;1.70;;
16954;SDS011;8594;52.052;8.354;2023-04-03T09:12:42;2.30;;;1.60;;
16954;SDS011;8594;52.052;8.354;2023-04-03T09:15:17;5.27;;;1.60;;
16954;SDS011;8594;52.052;8.354;2023-04-03T09:17:49;4.27;;;1.50;;
16954;SDS011;8594;52.052;8.354;2023-04-03T09:20:31;4.80;;;1.80;;
16954;SDS011;8594;52.052;8.354;2023-04-03T09:23:12;4.40;;;1.40;;
16954;SDS011;8594;52.052;8.354;2023-04-03T09:25:47;2.33;;;1.37;;
16954;SDS011;8594;52.052;8.354;2023-04-03T09:28:20;2.33;;;1.57;;
16954;SDS011;8594;52.052;8.354;2023-04-03T09:30:47;4.73;;;1.60;;
16954;SDS011;8594;52.052;8.354;2023-04-03T09:33:14;5.57;;;2.23;;
16954;SDS011;8594;52.052;8.354;2023-04-03T09:35:43;5.27;;;1.60;;
16954;SDS011;8594;52.052;8.354;2023-04-03T09:38:15;3.40;;;1.60;;
16954;SDS011;8594;52.052;8.354;2023-04-03T09:40:46;4.73;;;2.00;;
16954;SDS011;8594;52.052;8.354;2023-04-03T09:43:22;4.53;;;1.60;;
16954;SDS011;8594;52.052;8.354;2023-04-03T09:45:55;6.47;;;1.70;;
16954;SDS011;8594;52.052;8.354;2023-04-03T09:48:49;5.33;;;1.90;;
16954;SDS011;8594;52.052;8.354;2023-04-03T09:51:18;2.93;;;1.30;;
16954;SDS011;8594;52.052;8.354;2023-04-03T09:53:45;3.80;;;1.67;;
16954;SDS011;8594;52.052;8.354;2023-04-03T09:56:18;2.53;;;1.50;;
16954;SDS011;8594;52.052;8.354;2023-04-03T09:58:52;5.07;;;1.67;;
16954;SDS011;8594;52.052;8.354;2023-04-03T10:01:39;2.37;;;1.47;;
16954;SDS011;8594;52.052;8.354;2023-04-03T10:04:11;5.17;;;1.70;;
16954;SDS011;8594;52.052;8.354;2023-04-03T10:06:41;3.03;;;1.57;;
16954;SDS011;8594;52.052;8.354;2023-04-03T10:09:17;4.93;;;1.93;;
16954;SDS011;8594;52.052;8.354;2023-04-03T10:12:00;4.23;;;1.50;;
16954;SDS011;8594;52.052;8.354;2023-04-03T10:14:32;4.00;;;1.70;;
16954;SDS011;8594;52.052;8.354;2023-04-03T10:17:09;5.90;;;1.53;;
16954;SDS011;8594;52.052;8.354;2023-04-03T10:19:45;6.60;;;2.07;;
16954;SDS011;8594;52.052;8.354;2023-04-03T10:22:20;4.67;;;1.40;;
16954;SDS011;8594;52.052;8.354;2023-04-03T10:25:00;3.10;;;1.50;;
16954;SDS011;8594;52.052;8.354;2023-04-03T10:27:42;4.23;;;1.50;;
16954;SDS011;8594;52.052;8.354;2023-04-03T10:30:22;7.40;;;1.83;;
16954;SDS011;8594;52.052;8.354;2023-04-03T10:33:11;5.30;;;1.70;;
16954;SDS011;8594;52.052;8.354;2023-04-03T10:36:01;3.93;;;1.60;;
16954;SDS011;8594;52.052;8.354;2023-04-03T10:38:41;6.00;;;1.40;;
16954;SDS011;8594;52.052;8.354;2023-04-03T10:41:23;4.13;;;1.20;;
16954;SDS011;8594;52.052;8.354;2023-04-03T10:44:08;4.40;;;1.50;;
16954;SDS011;8594;52.052;8.354;2023-04-03T10:46:46;4.07;;;1.57;;
16954;SDS011;8594;52.052;8.354;2023-04-03T10:49:23;3.97;;;1.47;;
16954;SDS011;8594;52.052;8.354;2023-04-03T10:52:06;2.77;;;1.40;;
16954;SDS011;8594;52.052;8.354;2023-04-03T10:54:43;5.47;;;1.30;;
16954;SDS011;8594;52.052;8.354;2023-04-03T10:57:21;4.10;;;1.40;;
16954;SDS011;8594;52.052;8.354;2023-04-03T10:59:51;4.80;;;1.50;;
16954;SDS011;8594;52.052;8.354;2023-04-03T11:02:25;6.17;;;1.50;;
16954;SDS011;8594;52.052;8.354;2023-04-03T11:04:57;4.73;;;1.53;;
16954;SDS011;8594;52.052;8.354;2023-04-03T11:07:29;4.37;;;1.60;;
16954;SDS011;8594;52.052;8.354;2023-04-03T11:10:08;4.77;;;1.57;;
16954;SDS011;8594;52.052;8.354;2023-04-03T11:12:42;2.47;;;1.30;;
16954;SDS011;8594;52.052;8.354;2023-04-03T11:15:16;4.07;;;2.27;;
16954;SDS011;8594;52.052;8.354;2023-04-03T11:17:48;5.70;;;1.73;;
16954;SDS011;8594;52.052;8.354;2023-04-03T11:20:21;3.47;;;1.40;;
16954;SDS011;8594;52.052;8.354;2023-04-03T11:22:58;3.77;;;1.50;;
16954;SDS011;8594;52.052;8.354;2023-04-03T11:25:32;3.50;;;1.60;;
16954;SDS011;8594;52.052;8.354;2023-04-03T11:28:03;5.17;;;1.60;;
16954;SDS011;8594;52.052;8.354;2023-04-03T11:30:33;11.23;;;1.93;;
16954;SDS011;8594;52.052;8.354;2023-04-03T11:33:18;3.60;;;1.80;;
16954;SDS011;8594;52.052;8.354;2023-04-03T11:36:10;3.77;;;1.63;;
16954;SDS011;8594;52.052;8.354;2023-04-03T11:38:46;3.87;;;1.70;;
16954;SDS011;8594;52.052;8.354;2023-04-03T11:41:17;4.90;;;1.70;;
16954;SDS011;8594;52.052;8.354;2023-04-03T11:43:55;2.83;;;1.50;;
16954;SDS011;8594;52.052;8.354;2023-04-03T11:58:23;5.73;;;1.70;;
16954;SDS011;8594;52.052;8.354;2023-04-03T12:00:56;5.63;;;1.83;;
16954;SDS011;8594;52.052;8.354;2023-04-03T12:12:43;4.87;;;1.60;;
16954;SDS011;8594;52.052;8.354;2023-04-03T12:24:40;7.50;;;1.60;;
16954;SDS011;8594;52.052;8.354;2023-04-03T12:27:15;3.77;;;1.90;;
16954;SDS011;8594;52.052;8.354;2023-04-03T12:30:12;4.53;;;1.93;;
16954;SDS011;8594;52.052;8.354;2023-04-03T12:33:01;4.93;;;1.73;;
16954;SDS011;8594;52.052;8.354;2023-04-03T12:35:44;4.33;;;1.67;;
16954;SDS011;8594;52.052;8.354;2023-04-03T12:38:44;8.13;;;1.73;;
16954;SDS011;8594;52.052;8.354;2023-04-03T12:41:30;6.23;;;1.67;;
16954;SDS011;8594;52.052;8.354;2023-04-03T12:44:11;5.00;;;1.93;;
16954;SDS011;8594;52.052;8.354;2023-04-03T12:46:53;6.00;;;1.50;;
16954;SDS011;8594;52.052;8.354;2023-04-03T12:49:30;3.07;;;1.73;;
16954;SDS011;8594;52.052;8.354;2023-04-03T12:52:06;4.93;;;2.13;;
16954;SDS011;8594;52.052;8.354;2023-04-03T12:54:49;3.40;;;1.50;;
16954;SDS011;8594;52.052;8.354;2023-04-03T12:57:18;4.80;;;1.80;;
16954;SDS011;8594;52.052;8.354;2023-04-03T12:59:49;5.00;;;1.43;;
16954;SDS011;8594;52.052;8.354;2023-04-03T13:02:21;3.57;;;1.50;;
16954;SDS011;8594;52.052;8.354;2023-04-03T13:04:52;5.47;;;1.50;;
16954;SDS011;8594;52.052;8.354;2023-04-03T13:07:23;4.80;;;1.50;;
16954;SDS011;8594;52.052;8.354;2023-04-03T13:10:04;5.03;;;1.60;;
16954;SDS011;8594;52.052;8.354;2023-04-03T13:12:45;3.97;;;1.60;;
16954;SDS011;8594;52.052;8.354;2023-04-03T13:15:16;3.03;;;1.43;;
16954;SDS011;8594;52.052;8.354;2023-04-03T13:17:45;2.63;;;1.33;;
16954;SDS011;8594;52.052;8.354;2023-04-03T13:20:16;5.10;;;1.30;;
16954;SDS011;8594;52.052;8.354;2023-04-03T13:22:49;4.73;;;1.83;;
16954;SDS011;8594;52.052;8.354;2023-04-03T13:25:24;5.27;;;1.90;;
16954;SDS011;8594;52.052;8.354;2023-04-03T13:27:56;4.77;;;1.70;;
16954;SDS011;8594;52.052;8.354;2023-04-03T13:30:28;9.97;;;1.80;;
16954;SDS011;8594;52.052;8.354;2023-04-03T13:32:59;5.57;;;1.70;;
16954;SDS011;8594;52.052;8.354;2023-04-03T13:35:33;5.23;;;1.80;;
16954;SDS011;8594;52.052;8.354;2023-04-03T13:38:05;5.87;;;1.73;;
16954;SDS011;8594;52.052;8.354;2023-04-03T13:40:50;4.33;;;1.90;;
16954;SDS011;8594;52.052;8.354;2023-04-03T13:43:20;6.73;;;3.20;;
16954;SDS011;8594;52.052;8.354;2023-04-03T13:46:02;4.37;;;2.23;;
16954;SDS011;8594;52.052;8.354;2023-04-03T13:48:51;4.73;;;2.10;;
16954;SDS011;8594;52.052;8.354;2023-04-03T13:51:21;4.27;;;1.70;;
16954;SDS011;8594;52.052;8.354;2023-04-03T13:53:52;5.77;;;1.90;;
16954;SDS011;8594;52.052;8.354;2023-04-03T13:56:25;4.73;;;1.50;;
16954;SDS011;8594;52.052;8.354;2023-04-03T13:59:02;6.47;;;2.10;;
16954;SDS011;8594;52.052;8.354;2023-04-03T14:01:48;4.70;;;1.63;;
16954;SDS011;8594;52.052;8.354;2023-04-03T14:04:20;8.53;;;3.00;;
16954;SDS011;8594;52.052;8.354;2023-04-03T14:06:50;3.07;;;1.70;;
16954;SDS011;8594;52.052;8.354;2023-04-03T14:09:18;4.07;;;1.87;;
16954;SDS011;8594;52.052;8.354;2023-04-03T14:11:49;7.50;;;2.10;;
16954;SDS011;8594;52.052;8.354;2023-04-03T14:14:19;4.33;;;1.47;;
16954;SDS011;8594;52.052;8.354;2023-04-03T14:16:50;4.13;;;1.70;;
16954;SDS011;8594;52.052;8.354;2023-04-03T14:19:21;5.00;;;1.70;;
16954;SDS011;8594;52.052;8.354;2023-04-03T14:21:51;3.80;;;1.67;;
16954;SDS011;8594;52.052;8.354;2023-04-03T14:24:21;4.97;;;1.90;;
16954;SDS011;8594;52.052;8.354;2023-04-03T14:26:51;3.43;;;1.67;;
16954;SDS011;8594;52.052;8.354;2023-04-03T14:29:20;5.13;;;1.50;;
16954;SDS011;8594;52.052;8.354;2023-04-03T14:31:49;4.13;;;1.60;;
16954;SDS011;8594;52.052;8.354;2023-04-03T14:34:16;3.83;;;1.50;;
16954;SDS011;8594;52.052;8.354;2023-04-03T14:36:44;2.33;;;1.40;;
16954;SDS011;8594;52.052;8.354;2023-04-03T14:39:16;6.17;;;1.50;;
16954;SDS011;8594;52.052;8.354;2023-04-03T14:41:44;5.73;;;1.77;;
16954;SDS011;8594;52.052;8.354;2023-04-03T14:44:13;2.10;;;1.53;;
16954;SDS011;8594;52.052;8.354;2023-04-03T14:46:42;5.73;;;1.60;;
16954;SDS011;8594;52.052;8.354;2023-04-03T14:49:12;8.13;;;1.80;;
16954;SDS011;8594;52.052;8.354;2023-04-03T14:51:43;3.30;;;1.50;;
16954;SDS011;8594;52.052;8.354;2023-04-03T14:54:12;4.80;;;1.73;;
16954;SDS011;8594;52.052;8.354;2023-04-03T14:56:42;4.03;;;1.90;;
16954;SDS011;8594;52.052;8.354;2023-04-03T14:59:11;5.83;;;1.80;;
16954;SDS011;8594;52.052;8.354;2023-04-03T15:01:42;4.27;;;1.70;;
16954;SDS011;8594;52.052;8.354;2023-04-03T15:04:10;2.43;;;1.40;;
16954;SDS011;8594;52.052;8.354;2023-04-03T15:06:39;3.50;;;1.73;;
16954;SDS011;8594;52.052;8.354;2023-04-03T15:09:10;2.83;;;1.70;;
16954;SDS011;8594;52.052;8.354;2023-04-03T15:11:46;4.17;;;1.90;;
16954;SDS011;8594;52.052;8.354;2023-04-03T15:14:14;3.67;;;2.20;;
16954;SDS011;8594;52.052;8.354;2023-04-03T15:16:42;5.23;;;1.70;;
16954;SDS011;8594;52.052;8.354;2023-04-03T15:19:10;3.13;;;1.90;;
16954;SDS011;8594;52.052;8.354;2023-04-03T15:21:37;5.53;;;1.70;;
16954;SDS011;8594;52.052;8.354;2023-04-03T15:24:05;5.90;;;2.10;;
16954;SDS011;8594;52.052;8.354;2023-04-03T15:26:32;4.70;;;1.77;;
16954;SDS011;8594;52.052;8.354;2023-04-03T15:28:59;3.30;;;1.50;;
16954;SDS011;8594;52.052;8.354;2023-04-03T15:31:28;3.47;;;1.30;;
16954;SDS011;8594;52.052;8.354;2023-04-03T15:33:55;3.33;;;1.50;;
16954;SDS011;8594;52.052;8.354;2023-04-03T15:36:22;3.90;;;1.57;;
16954;SDS011;8594;52.052;8.354;2023-04-03T15:38:48;3.73;;;2.07;;
16954;SDS011;8594;52.052;8.354;2023-04-03T15:41:15;2.40;;;1.50;;
16954;SDS011;8594;52.052;8.354;2023-04-03T15:43:42;2.20;;;1.23;;
16954;SDS011;8594;52.052;8.354;2023-04-03T15:46:10;3.97;;;1.83;;
16954;SDS011;8594;52.052;8.354;2023-04-03T15:48:39;5.20;;;1.83;;
16954;SDS011;8594;52.052;8.354;2023-04-03T15:51:06;3.10;;;1.70;;